Time;durP1;ratioP1;P1;durP2;ratioP2;P2;SDS_P1;SDS_P2;PMS_P1;PMS_P2;Temp;Humidity;BMP_temperature;BMP_pressure;BME280_temperature;BME280_humidity;BME280_pressure;Samples;Min_cycle;Max_cycle;Signal;HPM_P1;HPM_P2
2023/02/28 00:01:23;;;;;;;;;;;;;;;;;;4987708;28;19921;-67
2023/02/28 00:03:54;;;;;;;;;;;;;;;;;;4970589;28;21516;-67
2023/02/28 00:06:20;;;;;;;;;;;;;;;;;;5003126;28;19964;-67
2023/02/28 00:08:45;;;;;;;;;;;;;;;;;;5003519;28;19960;-66
2023/02/28 00:11:11;;;;;;;;;;;;;;;;;;4970567;28;19921;-66
2023/02/28 00:13:37;;;;;;;;;;;;;;;;;;4986244;28;19928;-66
2023/02/28 00:16:02;;;;;;;;;;;;;;;;;;4986133;28;20077;-67
2023/02/28 00:18:27;;;;;;;;;;;;;;;;;;4983849;28;20204;-65
2023/02/28 00:20:58;;;;;;;;;;;;;;;;;;4996059;28;19961;-66
2023/02/28 00:23:23;;;;;;;;;;;;;;;;;;4988177;28;20219;-66
2023/02/28 00:25:49;;;;;;;;;;;;;;;;;;4983425;28;19920;-68
2023/02/28 00:28:14;;;;;;;;;;;;;;;;;;4967147;28;20038;-66
2023/02/28 00:30:44;;;;;;;;;;;;;;;;;;4986416;28;19975;-67
2023/02/28 00:33:09;;;;;;;;;;;;;;;;;;5005991;28;19924;-67
2023/02/28 00:35:37;;;;;;;;;;;;;;;;;;4985792;28;19921;-66
2023/02/28 00:38:03;;;;;;;;;;;;;;;;;;4986241;28;20066;-67
2023/02/28 00:40:30;;;;;;;;;;;;;;;;;;4981092;28;19960;-66
2023/02/28 00:42:56;;;;;;;;;;;;;;;;;;4985313;28;19921;-67
2023/02/28 00:45:21;;;;;;;;;;;;;;;;;;5001809;28;19932;-67
2023/02/28 00:47:49;;;;;;;;;;;;;;;;;;5006247;28;19920;-66
2023/02/28 00:50:14;;;;;;;;;;;;;;;;;;4967339;28;20067;-68
2023/02/28 00:52:42;;;;;;;;;;;;;;;;;;4984438;28;19928;-67
2023/02/28 00:55:07;;;;;;;;;;;;;;;;;;4974266;28;19975;-67
2023/02/28 00:57:33;;;;;;;;;;;;;;;;;;4985137;28;19921;-67
2023/02/28 01:00:03;;;;;;;;;;;;;;;;;;5002429;28;19917;-67
2023/02/28 01:02:28;;;;;;;;;;;;;;;;;;4969495;28;20632;-67
2023/02/28 01:04:54;;;;;;;;;;;;;;;;;;4985936;28;19963;-67
2023/02/28 01:07:19;;;;;;;;;;;;;;;;;;4984843;28;20197;-66
2023/02/28 01:09:46;;;;;;;;;;;;;;;;;;4989197;28;20287;-66
2023/02/28 01:12:12;;;;;;;;;;;;;;;;;;5005373;28;19932;-67
2023/02/28 01:14:39;;;;;;;;;;;;;;;;;;4983308;28;19928;-66
2023/02/28 01:17:07;;;;;;;;;;;;;;;;;;4984226;28;19964;-67
2023/02/28 01:19:32;;;;;;;;;;;;;;;;;;4985815;28;19921;-66
2023/02/28 01:22:01;;;;;;;;;;;;;;;;;;5001183;28;19939;-67
2023/02/28 01:24:30;;;;;;;;;;;;;;;;;;5004651;28;19921;-65
2023/02/28 01:26:55;;;;;;;;;;;;;;;;;;4988011;28;20288;-66
2023/02/28 01:29:23;;;;;;;;;;;;;;;;;;4985562;28;19944;-66
2023/02/28 01:31:52;;;;;;;;;;;;;;;;;;4982401;28;19946;-68
2023/02/28 01:34:20;;;;;;;;;;;;;;;;;;5003317;28;20408;-67
2023/02/28 01:36:47;;;;;;;;;;;;;;;;;;5001823;28;21833;-67
2023/02/28 01:39:13;;;;;;;;;;;;;;;;;;4966939;28;19928;-66
2023/02/28 01:41:38;;;;;;;;;;;;;;;;;;5004066;28;19921;-66
2023/02/28 01:44:03;;;;;;;;;;;;;;;;;;4970193;28;21370;-67
2023/02/28 01:46:28;;;;;;;;;;;;;;;;;;4985675;28;20019;-67
2023/02/28 01:48:54;;;;;;;;;;;;;;;;;;5003616;28;19921;-66
2023/02/28 01:51:19;;;;;;;;;;;;;;;;;;4986468;28;19917;-65
2023/02/28 01:53:44;;;;;;;;;;;;;;;;;;5007572;28;19983;-67
2023/02/28 01:56:10;;;;;;;;;;;;;;;;;;5005526;28;19925;-67
2023/02/28 01:58:35;;;;;;;;;;;;;;;;;;4967706;28;19917;-66
2023/02/28 02:01:02;;;;;;;;;;;;;;;;;;5001073;28;20033;-65
2023/02/28 02:03:28;;;;;;;;;;;;;;;;;;4983719;28;19963;-66
2023/02/28 02:05:53;;;;;;;;;;;;;;;;;;5003709;28;19916;-66
2023/02/28 02:08:21;;;;;;;;;;;;;;;;;;4970076;28;20197;-67
2023/02/28 02:10:50;;;;;;;;;;;;;;;;;;5004912;28;21328;-66
2023/02/28 02:13:15;;;;;;;;;;;;;;;;;;4984568;28;19925;-66
2023/02/28 02:15:42;;;;;;;;;;;;;;;;;;4969986;28;19916;-66
2023/02/28 02:18:08;;;;;;;;;;;;;;;;;;4983392;28;19928;-66
2023/02/28 02:20:36;;;;;;;;;;;;;;;;;;4983771;28;19944;-66
2023/02/28 02:23:01;;;;;;;;;;;;;;;;;;4985585;28;20395;-67
2023/02/28 02:25:26;;;;;;;;;;;;;;;;;;5001443;28;19916;-67
2023/02/28 02:27:54;;;;;;;;;;;;;;;;;;4969925;28;20003;-67
2023/02/28 02:30:19;;;;;;;;;;;;;;;;;;4983973;28;20427;-67
2023/02/28 02:32:45;;;;;;;;;;;;;;;;;;4983480;28;19933;-67
2023/02/28 02:35:15;;;;;;;;;;;;;;;;;;5003626;28;19960;-67
2023/02/28 02:37:40;;;;;;;;;;;;;;;;;;4986864;28;19924;-67
2023/02/28 02:40:07;;;;;;;;;;;;;;;;;;4984753;28;20287;-67
2023/02/28 02:42:35;;;;;;;;;;;;;;;;;;4967227;28;19932;-67
2023/02/28 02:45:01;;;;;;;;;;;;;;;;;;4983972;28;19924;-67
2023/02/28 02:47:26;;;;;;;;;;;;;;;;;;4992628;28;20441;-66
2023/02/28 02:49:51;;;;;;;;;;;;;;;;;;5005314;28;20283;-67
2023/02/28 02:52:20;;;;;;;;;;;;;;;;;;5002092;28;20351;-67
2023/02/28 02:54:46;;;;;;;;;;;;;;;;;;4968644;28;20012;-67
2023/02/28 02:57:12;;;;;;;;;;;;;;;;;;5003575;28;19928;-65
2023/02/28 02:59:38;;;;;;;;;;;;;;;;;;4999176;28;20323;-66
2023/02/28 03:02:03;;;;;;;;;;;;;;;;;;4984935;28;19978;-66
2023/02/28 03:04:28;;;;;;;;;;;;;;;;;;4981289;28;21108;-66
2023/02/28 03:06:57;;;;;;;;;;;;;;;;;;4983950;28;20071;-67
2023/02/28 03:09:22;;;;;;;;;;;;;;;;;;5004458;28;19921;-66
2023/02/28 03:11:47;;;;;;;;;;;;;;;;;;4983388;28;19967;-66
2023/02/28 03:14:13;;;;;;;;;;;;;;;;;;4983896;28;20036;-66
2023/02/28 03:16:39;;;;;;;;;;;;;;;;;;4967385;28;19921;-66
2023/02/28 03:19:04;;;;;;;;;;;;;;;;;;5005216;28;19921;-65
2023/02/28 03:21:33;;;;;;;;;;;;;;;;;;5003013;28;19977;-66
2023/02/28 03:23:58;;;;;;;;;;;;;;;;;;4981071;28;20464;-66
2023/02/28 03:26:23;;;;;;;;;;;;;;;;;;5000245;28;19920;-66
2023/02/28 03:28:48;;;;;;;;;;;;;;;;;;5001514;28;20311;-66
2023/02/28 03:31:14;;;;;;;;;;;;;;;;;;4985834;28;19992;-66
2023/02/28 03:33:39;;;;;;;;;;;;;;;;;;4966094;28;20810;-66
2023/02/28 03:36:07;;;;;;;;;;;;;;;;;;4969344;28;20007;-68
2023/02/28 03:38:33;;;;;;;;;;;;;;;;;;4965217;28;20365;-67
2023/02/28 03:40:58;;;;;;;;;;;;;;;;;;4965983;28;19975;-68
2023/02/28 03:43:26;;;;;;;;;;;;;;;;;;5003560;28;20577;-68
2023/02/28 03:45:51;;;;;;;;;;;;;;;;;;4965899;28;19917;-68
2023/02/28 03:48:19;;;;;;;;;;;;;;;;;;4982387;28;19921;-68
2023/02/28 03:50:44;;;;;;;;;;;;;;;;;;4968298;28;19990;-67
2023/02/28 03:53:12;;;;;;;;;;;;;;;;;;5002522;28;19933;-67
2023/02/28 03:55:38;;;;;;;;;;;;;;;;;;4983570;28;19928;-68
2023/02/28 03:58:06;;;;;;;;;;;;;;;;;;4983875;28;19933;-68
2023/02/28 04:00:34;;;;;;;;;;;;;;;;;;5000437;28;20327;-69
2023/02/28 04:02:59;;;;;;;;;;;;;;;;;;4977505;28;19964;-67
2023/02/28 04:05:27;;;;;;;;;;;;;;;;;;5000842;28;20437;-68
2023/02/28 04:07:58;;;;;;;;;;;;;;;;;;4982938;28;19979;-67
2023/02/28 04:10:23;;;;;;;;;;;;;;;;;;4985434;28;19921;-69
2023/02/28 04:12:48;;;;;;;;;;;;;;;;;;4983483;28;20337;-70
2023/02/28 04:15:13;;;;;;;;;;;;;;;;;;4973827;28;20326;-68
2023/02/28 04:17:39;;;;;;;;;;;;;;;;;;4977266;28;20573;-69
2023/02/28 04:20:09;;;;;;;;;;;;;;;;;;4998688;28;19928;-70
2023/02/28 04:22:34;;;;;;;;;;;;;;;;;;4983935;28;19948;-70
2023/02/28 04:25:00;;;;;;;;;;;;;;;;;;4999952;28;20201;-70
2023/02/28 04:27:27;;;;;;;;;;;;;;;;;;4971267;28;20072;-71
2023/02/28 04:29:55;;;;;;;;;;;;;;;;;;4963535;28;19917;-71
2023/02/28 04:32:20;;;;;;;;;;;;;;;;;;4999983;28;19939;-71
2023/02/28 04:34:46;;;;;;;;;;;;;;;;;;4963864;28;20388;-72
2023/02/28 04:37:11;;;;;;;;;;;;;;;;;;4968640;28;19917;-72
2023/02/28 04:39:37;;;;;;;;;;;;;;;;;;4984229;28;20228;-72
2023/02/28 04:42:02;;;;;;;;;;;;;;;;;;5006456;28;19924;-73
2023/02/28 04:44:27;;;;;;;;;;;;;;;;;;4987880;28;20817;-73
2023/02/28 04:46:53;;;;;;;;;;;;;;;;;;5002503;28;19967;-72
2023/02/28 04:49:20;;;;;;;;;;;;;;;;;;4989394;28;20011;-73
2023/02/28 04:51:49;;;;;;;;;;;;;;;;;;4985504;28;20627;-73
2023/02/28 04:54:15;;;;;;;;;;;;;;;;;;5007526;28;19961;-73
2023/02/28 04:56:41;;;;;;;;;;;;;;;;;;5006548;28;20344;-73
2023/02/28 04:59:06;;;;;;;;;;;;;;;;;;4989583;28;20131;-72
2023/02/28 05:01:32;;;;;;;;;;;;;;;;;;5006518;28;20423;-72
2023/02/28 05:03:57;;;;;;;;;;;;;;;;;;4969855;28;19943;-71
2023/02/28 05:06:25;;;;;;;;;;;;;;;;;;5004752;28;19944;-72
2023/02/28 05:08:50;;;;;;;;;;;;;;;;;;4988208;28;20372;-72
2023/02/28 05:11:16;;;;;;;;;;;;;;;;;;5005571;28;19917;-73
2023/02/28 05:13:41;;;;;;;;;;;;;;;;;;5007280;28;20026;-72
2023/02/28 05:16:09;;;;;;;;;;;;;;;;;;4986326;28;19924;-72
2023/02/28 05:18:34;;;;;;;;;;;;;;;;;;4985411;28;19925;-71
2023/02/28 05:21:01;;;;;;;;;;;;;;;;;;4968934;28;19956;-71
2023/02/28 05:23:27;;;;;;;;;;;;;;;;;;5006393;28;19944;-71
2023/02/28 05:25:52;;;;;;;;;;;;;;;;;;5006620;28;20157;-72
2023/02/28 05:28:19;;;;;;;;;;;;;;;;;;5006442;28;20380;-71
2023/02/28 05:30:44;;;;;;;;;;;;;;;;;;5005245;28;19991;-71
2023/02/28 05:33:09;;;;;;;;;;;;;;;;;;4985470;28;19963;-70
2023/02/28 05:35:34;;;;;;;;;;;;;;;;;;4987576;28;19943;-71
2023/02/28 05:38:00;;;;;;;;;;;;;;;;;;4988376;28;20637;-69
2023/02/28 05:40:25;;;;;;;;;;;;;;;;;;4982774;28;20040;-71
2023/02/28 05:42:53;;;;;;;;;;;;;;;;;;4983810;28;20473;-70
2023/02/28 05:45:19;;;;;;;;;;;;;;;;;;5004127;28;19921;-71
2023/02/28 05:47:44;;;;;;;;;;;;;;;;;;4985619;28;20140;-68
2023/02/28 05:50:10;;;;;;;;;;;;;;;;;;5006748;28;20033;-69
2023/02/28 05:52:35;;;;;;;;;;;;;;;;;;4972091;28;20287;-71
2023/02/28 05:55:00;;;;;;;;;;;;;;;;;;4952263;28;20525;-69
2023/02/28 05:57:26;;;;;;;;;;;;;;;;;;4986878;28;20012;-69
2023/02/28 05:59:51;;;;;;;;;;;;;;;;;;4984528;28;20316;-69
2023/02/28 06:02:16;;;;;;;;;;;;;;;;;;4984616;28;19961;-69
2023/02/28 06:04:42;;;;;;;;;;;;;;;;;;4985730;28;20100;-69
2023/02/28 06:07:07;;;;;;;;;;;;;;;;;;4986418;28;19941;-70
2023/02/28 06:09:33;;;;;;;;;;;;;;;;;;4987065;28;19921;-71
2023/02/28 06:11:58;;;;;;;;;;;;;;;;;;4983013;28;19933;-70
2023/02/28 06:14:23;;;;;;;;;;;;;;;;;;4985973;28;19917;-69
2023/02/28 06:16:49;;;;;;;;;;;;;;;;;;4971481;28;19921;-69
2023/02/28 06:19:15;;;;;;;;;;;;;;;;;;4972313;28;19928;-69
2023/02/28 06:21:40;;;;;;;;;;;;;;;;;;4968830;28;19947;-69
2023/02/28 06:24:05;;;;;;;;;;;;;;;;;;4965634;28;20465;-69
2023/02/28 06:26:31;;;;;;;;;;;;;;;;;;4988476;28;20002;-69
2023/02/28 06:28:56;;;;;;;;;;;;;;;;;;4950440;28;19928;-69
2023/02/28 06:31:21;;;;;;;;;;;;;;;;;;4983750;28;19924;-69
2023/02/28 06:33:47;;;;;;;;;;;;;;;;;;4985575;28;19928;-70
2023/02/28 06:36:12;;;;;;;;;;;;;;;;;;4989399;28;20017;-68
2023/02/28 06:38:38;;;;;;;;;;;;;;;;;;4988633;28;19964;-69
2023/02/28 06:41:03;;;;;;;;;;;;;;;;;;4991842;28;20404;-69
2023/02/28 06:43:28;;;;;;;;;;;;;;;;;;4989877;28;20403;-69
2023/02/28 06:45:54;;;;;;;;;;;;;;;;;;4973766;28;19934;-69
2023/02/28 06:48:19;;;;;;;;;;;;;;;;;;4989000;28;19922;-68
2023/02/28 06:50:44;;;;;;;;;;;;;;;;;;4992418;28;20113;-68
2023/02/28 06:53:10;;;;;;;;;;;;;;;;;;4984640;28;19933;-71
2023/02/28 06:55:35;;;;;;;;;;;;;;;;;;4995020;28;20207;-69
2023/02/28 06:58:00;;;;;;;;;;;;;;;;;;4999845;28;19920;-69
2023/02/28 07:00:26;;;;;;;;;;;;;;;;;;5004108;28;19921;-69
2023/02/28 07:02:51;;;;;;;;;;;;;;;;;;5002130;28;20054;-70
2023/02/28 07:05:16;;;;;;;;;;;;;;;;;;4983143;28;19917;-69
2023/02/28 07:07:44;;;;;;;;;;;;;;;;;;5002941;28;19991;-71
2023/02/28 07:10:09;;;;;;;;;;;;;;;;;;4984972;28;19920;-70
2023/02/28 07:12:35;;;;;;;;;;;;;;;;;;4987322;28;19968;-71
2023/02/28 07:15:00;;;;;;;;;;;;;;;;;;4989032;28;19994;-69
2023/02/28 07:17:25;;;;;;;;;;;;;;;;;;5005636;28;19975;-70
2023/02/28 07:19:51;;;;;;;;;;;;;;;;;;5008757;28;20245;-69
2023/02/28 07:22:16;;;;;;;;;;;;;;;;;;5005492;28;19921;-69
2023/02/28 07:24:42;;;;;;;;;;;;;;;;;;4971381;28;19952;-69
2023/02/28 07:27:07;;;;;;;;;;;;;;;;;;5007731;28;19921;-70
2023/02/28 07:29:32;;;;;;;;;;;;;;;;;;4977020;28;19921;-68
2023/02/28 07:31:58;;;;;;;;;;;;;;;;;;5002041;28;19925;-71
2023/02/28 07:34:23;;;;;;;;;;;;;;;;;;4984094;28;19928;-68
2023/02/28 07:36:49;;;;;;;;;;;;;;;;;;5008582;28;19921;-69
2023/02/28 07:39:14;;;;;;;;;;;;;;;;;;5007528;28;20003;-72
2023/02/28 07:41:43;;;;;;;;;;;;;;;;;;4987444;28;20121;-70
2023/02/28 07:44:08;;;;;;;;;;;;;;;;;;4967697;28;21507;-69
2023/02/28 07:46:35;;;;;;;;;;;;;;;;;;4970774;28;19978;-69
2023/02/28 07:49:00;;;;;;;;;;;;;;;;;;5009189;28;19939;-71
2023/02/28 07:51:28;;;;;;;;;;;;;;;;;;4986767;28;19932;-69
2023/02/28 07:53:54;;;;;;;;;;;;;;;;;;4988511;28;19956;-69
2023/02/28 07:56:19;;;;;;;;;;;;;;;;;;5008042;28;20463;-70
2023/02/28 07:58:44;;;;;;;;;;;;;;;;;;5009313;28;20307;-71
2023/02/28 08:01:10;;;;;;;;;;;;;;;;;;4988944;28;19925;-69
2023/02/28 08:03:35;;;;;;;;;;;;;;;;;;4968987;28;19964;-68
2023/02/28 08:06:02;;;;;;;;;;;;;;;;;;4989823;28;19930;-71
2023/02/28 08:08:31;;;;;;;;;;;;;;;;;;4989415;28;20004;-69
2023/02/28 08:10:56;;;;;;;;;;;;;;;;;;4975782;28;20044;-70
2023/02/28 08:13:21;;;;;;;;;;;;;;;;;;4968165;28;20419;-71
2023/02/28 08:15:47;;;;;;;;;;;;;;;;;;4983214;28;19928;-69
2023/02/28 08:18:12;;;;;;;;;;;;;;;;;;5009528;28;19928;-71
2023/02/28 08:20:37;;;;;;;;;;;;;;;;;;5007021;28;19975;-72
2023/02/28 08:23:03;;;;;;;;;;;;;;;;;;4992060;28;20443;-72
2023/02/28 08:25:28;;;;;;;;;;;;;;;;;;5006912;28;19923;-70
2023/02/28 08:27:54;;;;;;;;;;;;;;;;;;5008414;28;20019;-70
2023/02/28 08:30:19;;;;;;;;;;;;;;;;;;5014323;28;19921;-70
2023/02/28 08:33:05;;;;;;;;;;;;;;;;;;5004491;28;20015;-70
2023/02/28 08:35:31;;;;;;;;;;;;;;;;;;4996741;28;19998;-72
2023/02/28 08:37:56;;;;;;;;;;;;;;;;;;5005026;28;19917;-70
2023/02/28 08:40:21;;;;;;;;;;;;;;;;;;4985433;28;22002;-72
2023/02/28 08:42:47;;;;;;;;;;;;;;;;;;4989737;28;19917;-70
2023/02/28 08:45:12;;;;;;;;;;;;;;;;;;5007889;28;19924;-72
2023/02/28 08:47:37;;;;;;;;;;;;;;;;;;5003812;28;19925;-71
2023/02/28 08:50:03;;;;;;;;;;;;;;;;;;5003362;28;20437;-69
2023/02/28 08:52:28;;;;;;;;;;;;;;;;;;4966015;28;20515;-69
2023/02/28 08:54:53;;;;;;;;;;;;;;;;;;4982009;28;20532;-71
2023/02/28 08:57:19;;;;;;;;;;;;;;;;;;4987966;28;19928;-70
2023/02/28 08:59:44;;;;;;;;;;;;;;;;;;4986798;28;20004;-68
2023/02/28 09:02:10;;;;;;;;;;;;;;;;;;4973719;28;20015;-70
2023/02/28 09:04:35;;;;;;;;;;;;;;;;;;4989280;28;20385;-71
2023/02/28 09:07:00;;;;;;;;;;;;;;;;;;4988019;28;20544;-71
2023/02/28 09:09:26;;;;;;;;;;;;;;;;;;4972017;28;19921;-71
2023/02/28 09:11:51;;;;;;;;;;;;;;;;;;4970297;28;19948;-70
2023/02/28 09:14:17;;;;;;;;;;;;;;;;;;4988937;28;19921;-71
2023/02/28 09:16:42;;;;;;;;;;;;;;;;;;4950759;28;20542;-70
2023/02/28 09:19:08;;;;;;;;;;;;;;;;;;4983434;28;19932;-70
2023/02/28 09:21:33;;;;;;;;;;;;;;;;;;4966701;28;20029;-70
2023/02/28 09:24:01;;;;;;;;;;;;;;;;;;4970105;28;19917;-68
2023/02/28 09:26:27;;;;;;;;;;;;;;;;;;4950179;28;20004;-68
2023/02/28 09:28:52;;;;;;;;;;;;;;;;;;4981828;28;19917;-70
2023/02/28 09:31:20;;;;;;;;;;;;;;;;;;4984347;28;20459;-69
2023/02/28 09:33:45;;;;;;;;;;;;;;;;;;4972684;28;19932;-69
2023/02/28 09:36:11;;;;;;;;;;;;;;;;;;4972401;28;19918;-70
2023/02/28 09:38:39;;;;;;;;;;;;;;;;;;4985464;28;19985;-68
2023/02/28 09:41:04;;;;;;;;;;;;;;;;;;4987063;28;19963;-69
2023/02/28 09:43:32;;;;;;;;;;;;;;;;;;4986377;28;20593;-68
2023/02/28 09:45:59;;;;;;;;;;;;;;;;;;4984047;28;19925;-68
2023/02/28 09:48:25;;;;;;;;;;;;;;;;;;4968232;28;19925;-68
2023/02/28 09:50:50;;;;;;;;;;;;;;;;;;4948461;28;20441;-68
2023/02/28 09:53:16;;;;;;;;;;;;;;;;;;4951324;28;20296;-67
2023/02/28 09:55:41;;;;;;;;;;;;;;;;;;4979875;28;19921;-68
2023/02/28 09:58:06;;;;;;;;;;;;;;;;;;4989812;28;20556;-67
2023/02/28 10:00:34;;;;;;;;;;;;;;;;;;5005739;28;20454;-67
2023/02/28 10:02:59;;;;;;;;;;;;;;;;;;5003845;28;19924;-67
2023/02/28 10:05:25;;;;;;;;;;;;;;;;;;4972027;28;19924;-67
2023/02/28 10:07:54;;;;;;;;;;;;;;;;;;5008938;28;19917;-69
2023/02/28 10:10:23;;;;;;;;;;;;;;;;;;5006363;28;19974;-68
2023/02/28 10:12:48;;;;;;;;;;;;;;;;;;4986039;28;19984;-66
2023/02/28 10:15:18;;;;;;;;;;;;;;;;;;4982362;28;20482;-67
2023/02/28 10:17:44;;;;;;;;;;;;;;;;;;4970206;28;19932;-67
2023/02/28 10:20:11;;;;;;;;;;;;;;;;;;4987277;28;20676;-65
2023/02/28 10:22:36;;;;;;;;;;;;;;;;;;5007933;28;20277;-67
2023/02/28 10:25:02;;;;;;;;;;;;;;;;;;4987988;28;19920;-68
2023/02/28 10:27:30;;;;;;;;;;;;;;;;;;4978160;28;19924;-66
2023/02/28 10:29:56;;;;;;;;;;;;;;;;;;4979469;28;19921;-66
2023/02/28 10:32:22;;;;;;;;;;;;;;;;;;4988411;28;19921;-66
2023/02/28 10:34:52;;;;;;;;;;;;;;;;;;5009683;28;20625;-68
2023/02/28 10:37:17;;;;;;;;;;;;;;;;;;5004671;28;19921;-67
2023/02/28 10:39:43;;;;;;;;;;;;;;;;;;5009427;28;19998;-67
2023/02/28 10:42:08;;;;;;;;;;;;;;;;;;4991399;28;19944;-67
2023/02/28 10:44:33;;;;;;;;;;;;;;;;;;4988152;28;19921;-68
2023/02/28 10:47:02;;;;;;;;;;;;;;;;;;4989857;28;20101;-68
2023/02/28 10:49:28;;;;;;;;;;;;;;;;;;4973558;28;20419;-68
2023/02/28 10:51:59;;;;;;;;;;;;;;;;;;4990310;28;20067;-69
2023/02/28 10:54:24;;;;;;;;;;;;;;;;;;5008181;28;19924;-69
2023/02/28 10:56:52;;;;;;;;;;;;;;;;;;5008996;28;19924;-69
2023/02/28 10:59:20;;;;;;;;;;;;;;;;;;4988598;28;20534;-68
2023/02/28 11:01:53;;;;;;;;;;;;;;;;;;4972983;28;19917;-70
2023/02/28 11:04:21;;;;;;;;;;;;;;;;;;4988902;28;19979;-69
2023/02/28 11:06:47;;;;;;;;;;;;;;;;;;4989939;28;20012;-69
2023/02/28 11:09:15;;;;;;;;;;;;;;;;;;5007031;28;20042;-70
2023/02/28 11:11:40;;;;;;;;;;;;;;;;;;4971501;28;20424;-70
2023/02/28 11:14:08;;;;;;;;;;;;;;;;;;5003984;28;20424;-70
2023/02/28 11:16:33;;;;;;;;;;;;;;;;;;4965822;28;20044;-71
2023/02/28 11:18:59;;;;;;;;;;;;;;;;;;4972020;28;19923;-71
2023/02/28 11:21:28;;;;;;;;;;;;;;;;;;4985768;28;19932;-71
2023/02/28 11:23:54;;;;;;;;;;;;;;;;;;4966936;28;19924;-72
2023/02/28 11:26:19;;;;;;;;;;;;;;;;;;4988152;28;19921;-73
2023/02/28 11:32:06;;;;;;;;;;;;;;;;;;4979783;28;20463;-72
2023/02/28 11:34:31;;;;;;;;;;;;;;;;;;4970996;28;19921;-72
2023/02/28 11:37:04;;;;;;;;;;;;;;;;;;4973067;28;20011;-73
2023/02/28 11:39:48;;;;;;;;;;;;;;;;;;4996557;28;20287;-73
2023/02/28 11:42:14;;;;;;;;;;;;;;;;;;5010253;28;20124;-72
2023/02/28 11:44:54;;;;;;;;;;;;;;;;;;4972136;28;20033;-71
2023/02/28 11:47:20;;;;;;;;;;;;;;;;;;4991614;28;19928;-72
2023/02/28 11:49:46;;;;;;;;;;;;;;;;;;4988166;28;20548;-72
2023/02/28 11:52:11;;;;;;;;;;;;;;;;;;4995031;28;20021;-73
2023/02/28 11:57:26;;;;;;;;;;;;;;;;;;4986255;28;20493;-72
2023/02/28 11:59:59;;;;;;;;;;;;;;;;;;4977893;28;20327;-72
2023/02/28 12:02:26;;;;;;;;;;;;;;;;;;4971223;28;20033;-72
2023/02/28 12:04:51;;;;;;;;;;;;;;;;;;4947161;28;19922;-74
2023/02/28 12:07:17;;;;;;;;;;;;;;;;;;4979563;28;19921;-72
2023/02/28 12:09:56;;;;;;;;;;;;;;;;;;4963975;28;19967;-72
2023/02/28 12:12:21;;;;;;;;;;;;;;;;;;4968163;28;20103;-73
2023/02/28 12:14:47;;;;;;;;;;;;;;;;;;4966627;28;20122;-72
2023/02/28 12:17:13;;;;;;;;;;;;;;;;;;4951721;28;20440;-74
2023/02/28 12:19:40;;;;;;;;;;;;;;;;;;4966135;28;20468;-72
2023/02/28 12:22:06;;;;;;;;;;;;;;;;;;4968044;28;20361;-72
2023/02/28 12:24:43;;;;;;;;;;;;;;;;;;4966030;28;19921;-71
2023/02/28 12:27:09;;;;;;;;;;;;;;;;;;4967766;28;19921;-71
2023/02/28 12:29:35;;;;;;;;;;;;;;;;;;4948883;28;19995;-72
2023/02/28 12:32:00;;;;;;;;;;;;;;;;;;4971213;28;19921;-73
2023/02/28 12:34:26;;;;;;;;;;;;;;;;;;4955800;28;19924;-72
2023/02/28 12:36:51;;;;;;;;;;;;;;;;;;4987732;28;19922;-73
2023/02/28 12:39:17;;;;;;;;;;;;;;;;;;4986083;28;19917;-73
2023/02/28 12:41:43;;;;;;;;;;;;;;;;;;4968000;28;19933;-72
2023/02/28 12:44:14;;;;;;;;;;;;;;;;;;4946795;28;21680;-72
2023/02/28 12:46:39;;;;;;;;;;;;;;;;;;4969795;28;20321;-74
2023/02/28 12:49:05;;;;;;;;;;;;;;;;;;4950378;28;19960;-74
2023/02/28 12:51:30;;;;;;;;;;;;;;;;;;4953591;28;19932;-72
2023/02/28 12:53:56;;;;;;;;;;;;;;;;;;4961475;28;19917;-72
2023/02/28 12:56:22;;;;;;;;;;;;;;;;;;4994835;28;20316;-72
2023/02/28 12:58:47;;;;;;;;;;;;;;;;;;4987970;28;19933;-73
2023/02/28 13:01:13;;;;;;;;;;;;;;;;;;4999923;28;20020;-73
2023/02/28 13:03:38;;;;;;;;;;;;;;;;;;4986889;28;20278;-73
2023/02/28 13:06:03;;;;;;;;;;;;;;;;;;4991900;28;20039;-74
2023/02/28 13:08:40;;;;;;;;;;;;;;;;;;4990232;28;20226;-75
2023/02/28 13:11:06;;;;;;;;;;;;;;;;;;5015675;28;19924;-75
2023/02/28 13:13:31;;;;;;;;;;;;;;;;;;5012788;28;19921;-74
2023/02/28 13:15:57;;;;;;;;;;;;;;;;;;4994223;28;19923;-76
2023/02/28 13:18:22;;;;;;;;;;;;;;;;;;4991046;28;20498;-74
2023/02/28 13:20:47;;;;;;;;;;;;;;;;;;5011747;28;19976;-75
2023/02/28 13:23:14;;;;;;;;;;;;;;;;;;4982143;28;19921;-75
2023/02/28 13:25:39;;;;;;;;;;;;;;;;;;5014783;28;20007;-75
2023/02/28 13:28:05;;;;;;;;;;;;;;;;;;4988703;28;20026;-75
2023/02/28 13:30:33;;;;;;;;;;;;;;;;;;5009379;28;20344;-74
2023/02/28 13:32:58;;;;;;;;;;;;;;;;;;5008639;28;19916;-75
2023/02/28 13:35:23;;;;;;;;;;;;;;;;;;4969235;28;20044;-75
2023/02/28 13:37:49;;;;;;;;;;;;;;;;;;4986794;28;19996;-75
2023/02/28 13:40:15;;;;;;;;;;;;;;;;;;4970438;28;20136;-74
2023/02/28 13:42:40;;;;;;;;;;;;;;;;;;4989958;28;19987;-73
2023/02/28 13:45:06;;;;;;;;;;;;;;;;;;5007780;28;19921;-75
2023/02/28 13:47:34;;;;;;;;;;;;;;;;;;4988097;28;19925;-75
2023/02/28 13:49:59;;;;;;;;;;;;;;;;;;4991536;28;20415;-75
2023/02/28 13:52:24;;;;;;;;;;;;;;;;;;4990515;28;19979;-75
2023/02/28 13:54:50;;;;;;;;;;;;;;;;;;5010659;28;19921;-77
2023/02/28 13:57:15;;;;;;;;;;;;;;;;;;5006216;28;20415;-78
2023/02/28 13:59:40;;;;;;;;;;;;;;;;;;5002067;28;19917;-76
2023/02/28 14:02:06;;;;;;;;;;;;;;;;;;5005497;28;20016;-74
2023/02/28 14:04:31;;;;;;;;;;;;;;;;;;4988115;28;20364;-76
2023/02/28 14:06:56;;;;;;;;;;;;;;;;;;5007119;28;19939;-77
2023/02/28 14:09:23;;;;;;;;;;;;;;;;;;4988343;28;19925;-75
2023/02/28 14:11:48;;;;;;;;;;;;;;;;;;4987923;28;19956;-75
2023/02/28 14:14:13;;;;;;;;;;;;;;;;;;4989329;28;20066;-73
2023/02/28 14:16:39;;;;;;;;;;;;;;;;;;5007012;28;19928;-77
2023/02/28 14:19:07;;;;;;;;;;;;;;;;;;5003056;28;19928;-74
2023/02/28 14:21:35;;;;;;;;;;;;;;;;;;4988359;28;20435;-75
2023/02/28 14:24:00;;;;;;;;;;;;;;;;;;5009317;28;20214;-76
2023/02/28 14:26:26;;;;;;;;;;;;;;;;;;5001947;28;19928;-74
2023/02/28 14:28:51;;;;;;;;;;;;;;;;;;5004668;28;20051;-74
2023/02/28 14:31:17;;;;;;;;;;;;;;;;;;4968391;28;20014;-74
2023/02/28 14:33:42;;;;;;;;;;;;;;;;;;4984724;28;19994;-76
2023/02/28 14:36:07;;;;;;;;;;;;;;;;;;5002878;28;20065;-76
2023/02/28 14:38:33;;;;;;;;;;;;;;;;;;5000772;28;20022;-74
2023/02/28 14:40:58;;;;;;;;;;;;;;;;;;5002935;28;20019;-75
2023/02/28 14:43:23;;;;;;;;;;;;;;;;;;5007036;28;20035;-74
2023/02/28 14:45:49;;;;;;;;;;;;;;;;;;4999764;28;19943;-72
2023/02/28 14:48:14;;;;;;;;;;;;;;;;;;4977419;28;19928;-74
2023/02/28 14:50:42;;;;;;;;;;;;;;;;;;4979584;28;19921;-73
2023/02/28 14:53:10;;;;;;;;;;;;;;;;;;4999979;28;20487;-74
2023/02/28 14:55:38;;;;;;;;;;;;;;;;;;4978899;28;19971;-73
2023/02/28 14:58:04;;;;;;;;;;;;;;;;;;4984016;28;19921;-73
2023/02/28 15:00:29;;;;;;;;;;;;;;;;;;5002401;28;20048;-73
2023/02/28 15:02:54;;;;;;;;;;;;;;;;;;5003493;28;20425;-74
2023/02/28 15:05:22;;;;;;;;;;;;;;;;;;4984789;28;19917;-74
2023/02/28 15:07:52;;;;;;;;;;;;;;;;;;5005245;28;20583;-73
2023/02/28 15:10:18;;;;;;;;;;;;;;;;;;5005540;28;19932;-74
2023/02/28 15:12:43;;;;;;;;;;;;;;;;;;5003991;28;19921;-75
2023/02/28 15:15:08;;;;;;;;;;;;;;;;;;5001994;28;21388;-75
2023/02/28 15:17:33;;;;;;;;;;;;;;;;;;5008924;28;20147;-77
2023/02/28 15:19:59;;;;;;;;;;;;;;;;;;4990345;28;20552;-74
2023/02/28 15:22:24;;;;;;;;;;;;;;;;;;4988561;28;20414;-74
2023/02/28 15:24:49;;;;;;;;;;;;;;;;;;4998086;28;20508;-74
2023/02/28 15:27:15;;;;;;;;;;;;;;;;;;4984100;28;20068;-74
2023/02/28 15:29:42;;;;;;;;;;;;;;;;;;4982894;28;19925;-74
2023/02/28 15:32:08;;;;;;;;;;;;;;;;;;4980011;28;19940;-73
2023/02/28 15:34:33;;;;;;;;;;;;;;;;;;5004325;28;19921;-72
2023/02/28 15:36:58;;;;;;;;;;;;;;;;;;5004695;28;20816;-72
2023/02/28 15:39:24;;;;;;;;;;;;;;;;;;5006324;28;20402;-72
2023/02/28 15:41:50;;;;;;;;;;;;;;;;;;5009868;28;19924;-73
2023/02/28 15:44:18;;;;;;;;;;;;;;;;;;5005354;28;19921;-72
2023/02/28 15:46:43;;;;;;;;;;;;;;;;;;5006480;28;19948;-71
2023/02/28 15:49:08;;;;;;;;;;;;;;;;;;5006346;28;20027;-73
2023/02/28 15:51:37;;;;;;;;;;;;;;;;;;5000539;28;20401;-72
2023/02/28 15:54:02;;;;;;;;;;;;;;;;;;4984937;28;20428;-74
2023/02/28 15:56:27;;;;;;;;;;;;;;;;;;5004114;28;20015;-74
2023/02/28 15:58:54;;;;;;;;;;;;;;;;;;4995990;28;20456;-71
2023/02/28 16:01:20;;;;;;;;;;;;;;;;;;5000511;28;19921;-71
2023/02/28 16:03:45;;;;;;;;;;;;;;;;;;4977830;28;19925;-73
2023/02/28 16:06:10;;;;;;;;;;;;;;;;;;5004122;28;19932;-71
2023/02/28 16:08:36;;;;;;;;;;;;;;;;;;4970984;28;20047;-73
2023/02/28 16:11:01;;;;;;;;;;;;;;;;;;4987333;28;20319;-73
2023/02/28 16:13:26;;;;;;;;;;;;;;;;;;5007598;28;19998;-73
2023/02/28 16:15:54;;;;;;;;;;;;;;;;;;4971581;28;19921;-73
2023/02/28 16:18:19;;;;;;;;;;;;;;;;;;4983041;28;19929;-73
2023/02/28 16:20:47;;;;;;;;;;;;;;;;;;4982456;28;19917;-71
2023/02/28 16:23:12;;;;;;;;;;;;;;;;;;4975773;28;19951;-72
2023/02/28 16:25:40;;;;;;;;;;;;;;;;;;4976064;28;19960;-73
2023/02/28 16:28:08;;;;;;;;;;;;;;;;;;4998413;28;20866;-72
2023/02/28 16:30:33;;;;;;;;;;;;;;;;;;5000445;28;20541;-71
2023/02/28 16:32:58;;;;;;;;;;;;;;;;;;5000536;28;20493;-73
2023/02/28 16:35:24;;;;;;;;;;;;;;;;;;4980827;28;19929;-72
2023/02/28 16:37:54;;;;;;;;;;;;;;;;;;5011406;28;20001;-73
2023/02/28 16:40:20;;;;;;;;;;;;;;;;;;5008341;28;19917;-73
2023/02/28 16:42:45;;;;;;;;;;;;;;;;;;4974894;28;20071;-72
2023/02/28 16:45:11;;;;;;;;;;;;;;;;;;5008945;28;19921;-73